EGE1882 KDFW-KIAH
Flight info
| Callsign | EGE1882 |
|---|---|
| Flight time | 0h 37m |
| Altitude | 25000 |
| Route | DARTZ9 TORNN GUSHR3 |
| Aircraft | B738/M-SDE2E3FGHIRWXY/LB1 |
Departure
| Time | 2026-05-04 22:29 |
|---|---|
| Airport | Dallas Fort Worth International Airport (KDFW) |
Arrival
| Time | 2026-05-04 23:07 |
|---|---|
| Airport | George Bush Intercontinental Airport (KIAH) |
| Time | Latitude | Longitude | Altitude | Speed | Heading |
|---|---|---|---|---|---|
| 2026-05-04 22:04 | 32.89171 | -97.03534 | 578 ft | 0 kts | 249° |
| 2026-05-04 22:18 | 32.89175 | -97.03519 | 574 ft | 2 kts | 250° |
| 2026-05-04 22:18 | 32.89181 | -97.03502 | 574 ft | 1 kts | 250° |
| 2026-05-04 22:18 | 32.89185 | -97.03490 | 574 ft | 2 kts | 234° |
| 2026-05-04 22:19 | 32.89196 | -97.03481 | 574 ft | 2 kts | 198° |
| 2026-05-04 22:19 | 32.89211 | -97.03479 | 574 ft | 2 kts | 165° |
| 2026-05-04 22:19 | 32.89218 | -97.03482 | 574 ft | 1 kts | 146° |
| 2026-05-04 22:19 | 32.89222 | -97.03485 | 574 ft | 0 kts | 151° |
| 2026-05-04 22:21 | 32.89216 | -97.03481 | 574 ft | 1 kts | 152° |
| 2026-05-04 22:21 | 32.89203 | -97.03473 | 574 ft | 2 kts | 152° |
| 2026-05-04 22:21 | 32.89188 | -97.03462 | 574 ft | 4 kts | 140° |
| 2026-05-04 22:22 | 32.89175 | -97.03395 | 574 ft | 10 kts | 91° |
| 2026-05-04 22:22 | 32.89181 | -97.03324 | 574 ft | 7 kts | 38° |
| 2026-05-04 22:22 | 32.89251 | -97.03319 | 574 ft | 16 kts | 358° |
| 2026-05-04 22:22 | 32.89378 | -97.03320 | 574 ft | 18 kts | 1° |
| 2026-05-04 22:23 | 32.89501 | -97.03318 | 574 ft | 16 kts | 0° |
| 2026-05-04 22:23 | 32.89611 | -97.03317 | 576 ft | 14 kts | 0° |
| 2026-05-04 22:23 | 32.89707 | -97.03316 | 577 ft | 14 kts | 0° |
| 2026-05-04 22:23 | 32.89844 | -97.03316 | 577 ft | 21 kts | 0° |
| 2026-05-04 22:24 | 32.89981 | -97.03317 | 580 ft | 18 kts | 360° |
| 2026-05-04 22:24 | 32.90105 | -97.03316 | 580 ft | 17 kts | 1° |
| 2026-05-04 22:24 | 32.90219 | -97.03313 | 581 ft | 15 kts | 359° |
| 2026-05-04 22:24 | 32.90319 | -97.03314 | 583 ft | 13 kts | 0° |
| 2026-05-04 22:25 | 32.90406 | -97.03313 | 583 ft | 12 kts | 0° |
| 2026-05-04 22:25 | 32.90489 | -97.03313 | 583 ft | 11 kts | 0° |
| 2026-05-04 22:25 | 32.90563 | -97.03313 | 584 ft | 9 kts | 0° |
| 2026-05-04 22:25 | 32.90622 | -97.03312 | 585 ft | 9 kts | 0° |
| 2026-05-04 22:26 | 32.90719 | -97.03312 | 585 ft | 16 kts | 0° |
| 2026-05-04 22:26 | 32.90834 | -97.03311 | 583 ft | 17 kts | 0° |
| 2026-05-04 22:26 | 32.90950 | -97.03311 | 583 ft | 16 kts | 0° |
| 2026-05-04 22:26 | 32.91056 | -97.03276 | 580 ft | 16 kts | 11° |
| 2026-05-04 22:27 | 32.91169 | -97.03275 | 579 ft | 15 kts | 360° |
| 2026-05-04 22:27 | 32.91282 | -97.03274 | 577 ft | 16 kts | 0° |
| 2026-05-04 22:27 | 32.91399 | -97.03273 | 575 ft | 17 kts | 360° |
| 2026-05-04 22:27 | 32.91490 | -97.03220 | 572 ft | 15 kts | 95° |
| 2026-05-04 22:28 | 32.91485 | -97.03091 | 570 ft | 15 kts | 88° |
| 2026-05-04 22:28 | 32.91456 | -97.02991 | 568 ft | 13 kts | 168° |
| 2026-05-04 22:28 | 32.91362 | -97.02991 | 570 ft | 19 kts | 180° |
| 2026-05-04 22:28 | 32.91067 | -97.02988 | 571 ft | 73 kts | 180° |
| 2026-05-04 22:29 | 32.90344 | -97.02996 | 572 ft | 130 kts | 180° |
| 2026-05-04 22:29 | 32.89396 | -97.03001 | 1109 ft | 129 kts | 181° |
| 2026-05-04 22:29 | 32.88571 | -97.03091 | 1635 ft | 132 kts | 181° |
| 2026-05-04 22:29 | 32.87641 | -97.03043 | 2134 ft | 139 kts | 175° |
| 2026-05-04 22:30 | 32.86650 | -97.03016 | 2534 ft | 151 kts | 179° |
| 2026-05-04 22:30 | 32.85549 | -97.03009 | 2924 ft | 166 kts | 179° |
| 2026-05-04 22:30 | 32.84351 | -97.03005 | 3335 ft | 180 kts | 179° |
| 2026-05-04 22:30 | 32.83037 | -97.03004 | 3703 ft | 198 kts | 180° |
| 2026-05-04 22:31 | 32.81604 | -97.03005 | 4162 ft | 212 kts | 181° |
| 2026-05-04 22:31 | 32.80077 | -97.03009 | 4596 ft | 228 kts | 181° |
| 2026-05-04 22:31 | 32.78433 | -97.03007 | 5059 ft | 242 kts | 182° |
| 2026-05-04 22:31 | 32.76737 | -97.03014 | 5711 ft | 247 kts | 182° |
| 2026-05-04 22:32 | 32.75011 | -97.03014 | 6402 ft | 250 kts | 181° |
| 2026-05-04 22:32 | 32.73292 | -97.03011 | 7097 ft | 252 kts | 182° |
| 2026-05-04 22:32 | 32.71535 | -97.03007 | 7834 ft | 255 kts | 179° |
| 2026-05-04 22:32 | 32.69759 | -97.02599 | 8444 ft | 270 kts | 162° |
| 2026-05-04 22:33 | 32.67999 | -97.01683 | 9034 ft | 284 kts | 156° |
| 2026-05-04 22:33 | 32.66184 | -97.00678 | 9827 ft | 289 kts | 156° |
| 2026-05-04 22:33 | 32.64338 | -96.99730 | 10462 ft | 297 kts | 157° |
| 2026-05-04 22:33 | 32.62372 | -96.98727 | 10728 ft | 315 kts | 158° |
| 2026-05-04 22:34 | 32.60304 | -96.97672 | 10984 ft | 333 kts | 159° |
| 2026-05-04 22:34 | 32.58093 | -96.96581 | 11224 ft | 351 kts | 161° |
| 2026-05-04 22:34 | 32.55777 | -96.95444 | 11480 ft | 369 kts | 160° |
| 2026-05-04 22:34 | 32.53418 | -96.94218 | 12022 ft | 378 kts | 159° |
| 2026-05-04 22:35 | 32.50974 | -96.92922 | 12636 ft | 387 kts | 159° |
| 2026-05-04 22:35 | 32.48510 | -96.91612 | 13293 ft | 394 kts | 159° |
| 2026-05-04 22:35 | 32.45977 | -96.90272 | 13893 ft | 405 kts | 159° |
| 2026-05-04 22:35 | 32.43389 | -96.88908 | 14716 ft | 408 kts | 160° |
| 2026-05-04 22:36 | 32.40799 | -96.87545 | 15469 ft | 413 kts | 160° |
| 2026-05-04 22:36 | 32.38163 | -96.86159 | 16251 ft | 417 kts | 160° |
| 2026-05-04 22:36 | 32.35492 | -96.84759 | 16874 ft | 425 kts | 160° |
| 2026-05-04 22:36 | 32.32756 | -96.83324 | 17581 ft | 430 kts | 160° |
| 2026-05-04 22:37 | 32.30033 | -96.81898 | 18207 ft | 436 kts | 160° |
| 2026-05-04 22:37 | 32.27238 | -96.80513 | 18887 ft | 438 kts | 164° |
| 2026-05-04 22:37 | 32.24346 | -96.79315 | 19451 ft | 443 kts | 167° |
| 2026-05-04 22:37 | 32.21377 | -96.78185 | 20047 ft | 449 kts | 168° |
| 2026-05-04 22:38 | 32.18381 | -96.77057 | 20712 ft | 453 kts | 168° |
| 2026-05-04 22:38 | 32.15427 | -96.75935 | 21533 ft | 451 kts | 168° |
| 2026-05-04 22:38 | 32.12429 | -96.74786 | 22278 ft | 451 kts | 169° |
| 2026-05-04 22:38 | 32.09459 | -96.73646 | 22884 ft | 454 kts | 168° |
| 2026-05-04 22:39 | 32.06414 | -96.72475 | 23537 ft | 457 kts | 169° |
| 2026-05-04 22:39 | 32.03394 | -96.71308 | 24289 ft | 455 kts | 169° |
| 2026-05-04 22:39 | 32.00404 | -96.70152 | 24713 ft | 460 kts | 169° |
| 2026-05-04 22:39 | 31.97354 | -96.68977 | 24814 ft | 464 kts | 169° |
| 2026-05-04 22:40 | 31.94294 | -96.67793 | 24850 ft | 460 kts | 169° |
| 2026-05-04 22:40 | 31.91261 | -96.66614 | 24847 ft | 459 kts | 169° |
| 2026-05-04 22:40 | 31.88202 | -96.65435 | 24843 ft | 472 kts | 169° |
| 2026-05-04 22:40 | 31.84970 | -96.64198 | 24828 ft | 487 kts | 169° |
| 2026-05-04 22:41 | 31.81693 | -96.62942 | 24847 ft | 500 kts | 169° |
| 2026-05-04 22:41 | 31.78340 | -96.61655 | 24861 ft | 513 kts | 168° |
| 2026-05-04 22:41 | 31.74909 | -96.60334 | 24883 ft | 522 kts | 168° |
| 2026-05-04 22:41 | 31.71463 | -96.59000 | 24901 ft | 522 kts | 168° |
| 2026-05-04 22:42 | 31.68055 | -96.57678 | 24901 ft | 521 kts | 168° |
| 2026-05-04 22:42 | 31.64630 | -96.56348 | 24898 ft | 517 kts | 168° |
| 2026-05-04 22:42 | 31.61200 | -96.55019 | 24904 ft | 515 kts | 168° |
| 2026-05-04 22:42 | 31.57798 | -96.53707 | 24898 ft | 518 kts | 168° |
| 2026-05-04 22:43 | 31.54324 | -96.52323 | 24898 ft | 523 kts | 166° |
| 2026-05-04 22:43 | 31.50980 | -96.50703 | 24898 ft | 524 kts | 161° |
| 2026-05-04 22:43 | 31.47689 | -96.48851 | 24887 ft | 524 kts | 159° |
| 2026-05-04 22:43 | 31.44430 | -96.46894 | 24885 ft | 518 kts | 158° |
| 2026-05-04 22:44 | 31.41260 | -96.44949 | 24882 ft | 521 kts | 157° |
| 2026-05-04 22:44 | 31.38007 | -96.42950 | 24871 ft | 529 kts | 158° |
| 2026-05-04 22:44 | 31.34727 | -96.40937 | 24861 ft | 530 kts | 157° |
| 2026-05-04 22:44 | 31.31494 | -96.38951 | 24879 ft | 527 kts | 157° |
| 2026-05-04 22:45 | 31.28243 | -96.36958 | 24861 ft | 527 kts | 158° |
| 2026-05-04 22:45 | 31.21710 | -96.32967 | 24853 ft | 528 kts | 158° |
| 2026-05-04 22:45 | 31.18486 | -96.31001 | 24866 ft | 527 kts | 158° |
| 2026-05-04 22:46 | 31.15205 | -96.29002 | 24867 ft | 527 kts | 158° |
| 2026-05-04 22:46 | 31.11959 | -96.27029 | 24869 ft | 527 kts | 158° |
| 2026-05-04 22:46 | 31.08705 | -96.25053 | 24865 ft | 528 kts | 158° |
| 2026-05-04 22:46 | 31.05438 | -96.23068 | 24864 ft | 528 kts | 158° |
| 2026-05-04 22:47 | 31.02203 | -96.21100 | 24851 ft | 515 kts | 158° |
| 2026-05-04 22:47 | 30.99067 | -96.19178 | 24870 ft | 497 kts | 158° |
| 2026-05-04 22:47 | 30.96115 | -96.17303 | 24865 ft | 480 kts | 156° |
| 2026-05-04 22:47 | 30.93240 | -96.15433 | 24871 ft | 465 kts | 156° |
| 2026-05-04 22:48 | 30.90396 | -96.13580 | 24880 ft | 461 kts | 157° |
| 2026-05-04 22:48 | 30.87566 | -96.11753 | 24895 ft | 468 kts | 156° |
| 2026-05-04 22:48 | 30.84719 | -96.09926 | 24895 ft | 477 kts | 157° |
| 2026-05-04 22:48 | 30.81788 | -96.08043 | 24798 ft | 476 kts | 157° |
| 2026-05-04 22:49 | 30.78905 | -96.06184 | 24325 ft | 473 kts | 156° |
| 2026-05-04 22:49 | 30.76051 | -96.04349 | 23599 ft | 475 kts | 156° |
| 2026-05-04 22:49 | 30.73139 | -96.02480 | 23064 ft | 470 kts | 156° |
| 2026-05-04 22:49 | 30.70320 | -96.00670 | 22468 ft | 468 kts | 156° |
| 2026-05-04 22:50 | 30.67464 | -95.98838 | 21855 ft | 467 kts | 156° |
| 2026-05-04 22:50 | 30.64615 | -95.97014 | 21225 ft | 465 kts | 156° |
| 2026-05-04 22:50 | 30.61835 | -95.95234 | 20563 ft | 456 kts | 155° |
| 2026-05-04 22:50 | 30.59085 | -95.93472 | 20000 ft | 444 kts | 155° |
| 2026-05-04 22:51 | 30.56389 | -95.91747 | 19501 ft | 438 kts | 155° |
| 2026-05-04 22:51 | 30.53736 | -95.90050 | 18960 ft | 430 kts | 156° |
| 2026-05-04 22:51 | 30.51168 | -95.88377 | 18346 ft | 426 kts | 154° |
| 2026-05-04 22:51 | 30.48712 | -95.86483 | 17721 ft | 421 kts | 147° |
| 2026-05-04 22:52 | 30.46447 | -95.84424 | 17168 ft | 413 kts | 144° |
| 2026-05-04 22:52 | 30.44252 | -95.82299 | 16602 ft | 405 kts | 143° |
| 2026-05-04 22:52 | 30.42134 | -95.80209 | 16048 ft | 397 kts | 142° |
| 2026-05-04 22:52 | 30.40063 | -95.78161 | 15507 ft | 390 kts | 142° |
| 2026-05-04 22:53 | 30.38024 | -95.76147 | 15145 ft | 377 kts | 142° |
| 2026-05-04 22:53 | 30.36085 | -95.74231 | 14915 ft | 361 kts | 142° |
| 2026-05-04 22:53 | 30.34174 | -95.72362 | 14550 ft | 352 kts | 143° |
| 2026-05-04 22:53 | 30.32321 | -95.70571 | 14120 ft | 346 kts | 143° |
| 2026-05-04 22:54 | 30.30480 | -95.68797 | 13709 ft | 340 kts | 143° |
| 2026-05-04 22:54 | 30.28675 | -95.67059 | 13321 ft | 336 kts | 143° |
| 2026-05-04 22:54 | 30.26879 | -95.65330 | 12910 ft | 336 kts | 143° |
| 2026-05-04 22:54 | 30.25078 | -95.63591 | 12503 ft | 335 kts | 143° |
| 2026-05-04 22:55 | 30.23310 | -95.61891 | 12104 ft | 335 kts | 143° |
| 2026-05-04 22:55 | 30.21506 | -95.60155 | 11673 ft | 332 kts | 143° |
| 2026-05-04 22:55 | 30.19755 | -95.58470 | 11284 ft | 325 kts | 142° |
| 2026-05-04 22:55 | 30.18037 | -95.56817 | 10894 ft | 320 kts | 142° |
| 2026-05-04 22:56 | 30.16344 | -95.55191 | 10511 ft | 319 kts | 142° |
| 2026-05-04 22:56 | 30.14643 | -95.53558 | 10116 ft | 318 kts | 142° |
| 2026-05-04 22:56 | 30.12927 | -95.51910 | 9876 ft | 311 kts | 142° |
| 2026-05-04 22:56 | 30.11283 | -95.50329 | 9627 ft | 306 kts | 140° |
| 2026-05-04 22:57 | 30.09886 | -95.48480 | 9214 ft | 310 kts | 122° |
| 2026-05-04 22:57 | 30.09153 | -95.46141 | 8844 ft | 310 kts | 96° |
| 2026-05-04 22:57 | 30.09119 | -95.43672 | 8488 ft | 307 kts | 88° |
| 2026-05-04 22:57 | 30.09201 | -95.41233 | 8116 ft | 303 kts | 88° |
| 2026-05-04 22:58 | 30.09248 | -95.38843 | 7767 ft | 296 kts | 90° |
| 2026-05-04 22:58 | 30.09259 | -95.36502 | 7415 ft | 289 kts | 91° |
| 2026-05-04 22:58 | 30.09257 | -95.34212 | 7073 ft | 283 kts | 92° |
| 2026-05-04 22:58 | 30.09265 | -95.31987 | 6738 ft | 277 kts | 92° |
| 2026-05-04 22:59 | 30.09274 | -95.29776 | 6406 ft | 271 kts | 92° |
| 2026-05-04 22:59 | 30.09272 | -95.27638 | 6198 ft | 261 kts | 92° |
| 2026-05-04 22:59 | 30.09270 | -95.25618 | 6132 ft | 247 kts | 92° |
| 2026-05-04 22:59 | 30.09268 | -95.23640 | 6080 ft | 246 kts | 92° |
| 2026-05-04 23:00 | 30.09267 | -95.21691 | 5940 ft | 238 kts | 93° |
| 2026-05-04 23:00 | 30.09271 | -95.19769 | 5572 ft | 242 kts | 92° |
| 2026-05-04 23:00 | 30.09283 | -95.17844 | 5225 ft | 240 kts | 92° |
| 2026-05-04 23:00 | 30.09211 | -95.15970 | 5045 ft | 228 kts | 104° |
| 2026-05-04 23:01 | 30.08652 | -95.14315 | 4692 ft | 221 kts | 128° |
| 2026-05-04 23:01 | 30.07632 | -95.13049 | 4392 ft | 211 kts | 144° |
| 2026-05-04 23:01 | 30.06386 | -95.12227 | 4099 ft | 201 kts | 165° |
| 2026-05-04 23:01 | 30.05057 | -95.11989 | 3848 ft | 191 kts | 181° |
| 2026-05-04 23:02 | 30.03773 | -95.12226 | 3645 ft | 182 kts | 206° |
| 2026-05-04 23:02 | 30.02865 | -95.13174 | 3469 ft | 176 kts | 230° |
| 2026-05-04 23:02 | 30.02181 | -95.14345 | 3253 ft | 175 kts | 238° |
| 2026-05-04 23:02 | 30.01679 | -95.15606 | 3038 ft | 174 kts | 245° |
| 2026-05-04 23:03 | 30.01294 | -95.16932 | 2813 ft | 174 kts | 250° |
| 2026-05-04 23:03 | 30.01056 | -95.18285 | 2585 ft | 175 kts | 256° |
| 2026-05-04 23:03 | 30.00923 | -95.19682 | 2342 ft | 174 kts | 260° |
| 2026-05-04 23:03 | 30.00845 | -95.21064 | 2110 ft | 166 kts | 261° |
| 2026-05-04 23:04 | 30.00800 | -95.22344 | 1888 ft | 157 kts | 261° |
| 2026-05-04 23:04 | 30.00765 | -95.23569 | 1722 ft | 151 kts | 262° |
| 2026-05-04 23:04 | 30.00746 | -95.24808 | 1494 ft | 156 kts | 262° |
| 2026-05-04 23:04 | 30.00736 | -95.26054 | 1284 ft | 155 kts | 262° |
| 2026-05-04 23:05 | 30.00733 | -95.27300 | 1078 ft | 155 kts | 264° |
| 2026-05-04 23:05 | 30.00726 | -95.28538 | 873 ft | 155 kts | 263° |
| 2026-05-04 23:05 | 30.00715 | -95.29786 | 667 ft | 156 kts | 263° |
| 2026-05-04 23:05 | 30.00731 | -95.31031 | 461 ft | 157 kts | 265° |
| 2026-05-04 23:06 | 30.00723 | -95.32297 | 264 ft | 155 kts | 261° |
| 2026-05-04 23:06 | 30.00724 | -95.33545 | 145 ft | 153 kts | 264° |
| 2026-05-04 23:06 | 30.00699 | -95.34669 | 100 ft | 127 kts | 271° |
| 2026-05-04 23:06 | 30.00714 | -95.35459 | 97 ft | 70 kts | 270° |
| 2026-05-04 23:07 | 30.00654 | -95.35764 | 94 ft | 25 kts | 186° |
| 2026-05-04 23:07 | 30.00487 | -95.35758 | 94 ft | 22 kts | 172° |
| 2026-05-04 23:07 | 30.00343 | -95.35748 | 97 ft | 18 kts | 164° |
| 2026-05-04 23:07 | 30.00246 | -95.35672 | 97 ft | 16 kts | 128° |
| 2026-05-04 23:08 | 30.00170 | -95.35583 | 97 ft | 14 kts | 139° |
| 2026-05-04 23:08 | 30.00088 | -95.35519 | 97 ft | 13 kts | 153° |
| 2026-05-04 23:08 | 30.00002 | -95.35493 | 97 ft | 11 kts | 175° |
| 2026-05-04 23:08 | 29.99931 | -95.35487 | 98 ft | 9 kts | 181° |
| 2026-05-04 23:09 | 29.99875 | -95.35487 | 99 ft | 7 kts | 179° |
| 2026-05-04 23:09 | 29.99767 | -95.35483 | 100 ft | 22 kts | 176° |
| 2026-05-04 23:09 | 29.99616 | -95.35480 | 100 ft | 20 kts | 183° |
| 2026-05-04 23:09 | 29.99511 | -95.35481 | 100 ft | 11 kts | 179° |
| 2026-05-04 23:10 | 29.99464 | -95.35482 | 100 ft | 4 kts | 183° |
| 2026-05-04 23:10 | 29.99447 | -95.35483 | 100 ft | 0 kts | 182° |
| 2026-05-04 23:10 | 29.99420 | -95.35484 | 100 ft | 11 kts | 182° |
| 2026-05-04 23:10 | 29.99282 | -95.35484 | 100 ft | 22 kts | 179° |
| 2026-05-04 23:11 | 29.99130 | -95.35480 | 99 ft | 21 kts | 184° |
| 2026-05-04 23:11 | 29.98984 | -95.35484 | 97 ft | 21 kts | 178° |
| 2026-05-04 23:11 | 29.98841 | -95.35486 | 97 ft | 19 kts | 179° |
| 2026-05-04 23:11 | 29.98729 | -95.35417 | 97 ft | 17 kts | 150° |
| 2026-05-04 23:12 | 29.98626 | -95.35352 | 96 ft | 16 kts | 150° |
| 2026-05-04 23:12 | 29.98530 | -95.35294 | 96 ft | 15 kts | 153° |
| 2026-05-04 23:12 | 29.98441 | -95.35241 | 96 ft | 13 kts | 153° |
| 2026-05-04 23:12 | 29.98384 | -95.35168 | 96 ft | 11 kts | 104° |
| 2026-05-04 23:13 | 29.98393 | -95.35094 | 96 ft | 7 kts | 23° |
| 2026-05-04 23:13 | 29.98442 | -95.35091 | 96 ft | 6 kts | 360° |
| 2026-05-04 23:13 | 29.98487 | -95.35091 | 96 ft | 6 kts | 0° |
| 2026-05-04 23:13 | 29.98527 | -95.35091 | 96 ft | 2 kts | 0° |